createdAt,value
2023-03-22T00:02:46.813Z,85.19
2023-03-22T00:06:25.719Z,85.19
2023-03-22T00:10:02.054Z,85.28
2023-03-22T00:13:42.531Z,85.35
2023-03-22T00:17:17.761Z,85.35
2023-03-22T00:20:59.743Z,85.39
2023-03-22T00:24:33.110Z,85.34
2023-03-22T00:28:11.249Z,85.36
2023-03-22T00:31:49.362Z,85.42
2023-03-22T00:35:26.042Z,85.42
2023-03-22T00:39:03.872Z,85.43
2023-03-22T00:42:42.095Z,85.44
2023-03-22T00:46:21.306Z,85.43
2023-03-22T00:49:57.388Z,85.39
2023-03-22T00:53:35.414Z,85.34
2023-03-22T00:57:15.079Z,85.37
2023-03-22T01:00:49.420Z,85.43
2023-03-22T01:04:27.279Z,85.42
2023-03-22T01:08:08.734Z,85.43
2023-03-22T01:11:43.927Z,85.44
2023-03-22T01:18:57.949Z,85.52
2023-03-22T01:22:35.853Z,85.44
2023-03-22T01:26:13.047Z,85.49
2023-03-22T01:29:51.042Z,85.59
2023-03-22T01:33:28.538Z,85.72
2023-03-22T01:37:06.331Z,85.74
2023-03-22T01:40:44.583Z,85.73
2023-03-22T01:44:23.312Z,85.66
2023-03-22T01:48:03.138Z,85.47
2023-03-22T01:51:36.931Z,85.48
2023-03-22T01:55:14.632Z,85.48
2023-03-22T01:58:54.653Z,85.48
2023-03-22T02:02:31.145Z,85.49
2023-03-22T02:06:08.286Z,85.57
2023-03-22T02:09:46.793Z,85.65
2023-03-22T02:13:39.112Z,85.75
2023-03-22T02:17:12.950Z,85.78
2023-03-22T02:24:43.942Z,85.95
2023-03-22T02:28:31.162Z,86.09
2023-03-22T02:31:48.911Z,86.22
2023-03-22T02:35:31.510Z,86.29
2023-03-22T02:39:05.388Z,86.31
2023-03-22T02:42:30.843Z,86.38
2023-03-22T02:46:23.634Z,86.51
2023-03-22T02:50:14.652Z,86.64
2023-03-22T02:53:20.973Z,86.82
2023-03-22T02:57:23.078Z,87.02
2023-03-22T03:00:36.794Z,87.28
2023-03-22T03:04:16.918Z,87.31
2023-03-22T03:07:57.631Z,87.30
2023-03-22T03:11:26.037Z,87.25
2023-03-22T03:15:13.988Z,86.97
2023-03-22T03:18:54.185Z,87.04
2023-03-22T03:22:56.965Z,87.22
2023-03-22T03:26:03.136Z,87.36
2023-03-22T03:29:41.511Z,87.46
2023-03-22T03:33:17.781Z,87.56
2023-03-22T03:36:58.740Z,87.69
2023-03-22T03:40:54.135Z,88.00
2023-03-22T03:44:07.341Z,88.19
2023-03-22T03:47:46.956Z,87.87
2023-03-22T03:51:21.376Z,87.98
2023-03-22T03:54:58.857Z,87.92
2023-03-22T03:58:37.368Z,87.99
2023-03-22T04:02:14.156Z,87.92
2023-03-22T04:05:51.962Z,88.03
2023-03-22T04:09:35.446Z,88.18
2023-03-22T04:13:07.473Z,88.26
2023-03-22T04:16:47.406Z,88.44
2023-03-22T04:20:22.785Z,88.68
2023-03-22T04:24:00.630Z,88.73
2023-03-22T04:27:42.347Z,88.98
2023-03-22T04:31:16.039Z,88.96
2023-03-22T04:34:53.556Z,89.11
2023-03-22T04:38:31.026Z,89.32
2023-03-22T04:42:08.881Z,89.52
2023-03-22T04:45:46.385Z,89.78
2023-03-22T04:49:24.180Z,89.82
2023-03-22T04:53:26.605Z,89.91
2023-03-22T04:56:39.605Z,90.15
2023-03-22T05:00:18.672Z,90.09
2023-03-22T05:03:55.073Z,90.12
2023-03-22T05:07:32.553Z,90.08
2023-03-22T05:11:13.910Z,90.07
2023-03-22T05:14:47.517Z,90.06
2023-03-22T05:18:26.468Z,90.08
2023-03-22T05:22:03.044Z,90.08
2023-03-22T05:25:45.353Z,90.07
2023-03-22T05:29:18.315Z,90.14
2023-03-22T05:33:00.644Z,90.06
2023-03-22T05:36:36.589Z,90.06
2023-03-22T05:40:12.717Z,90.03
2023-03-22T05:43:51.504Z,89.96
2023-03-22T05:47:26.878Z,89.91
2023-03-22T05:51:09.411Z,89.84
2023-03-22T05:54:42.182Z,89.78
2023-03-22T05:58:20.205Z,89.74
2023-03-22T06:01:57.330Z,89.72
2023-03-22T06:05:54.712Z,89.75
2023-03-22T06:09:17.535Z,89.66
2023-03-22T06:12:50.795Z,89.63
2023-03-22T06:16:28.410Z,89.64
2023-03-22T06:20:11.934Z,89.67
2023-03-22T06:23:44.158Z,89.69
2023-03-22T06:27:22.206Z,89.69
2023-03-22T06:30:58.706Z,89.75
2023-03-22T06:34:36.978Z,89.76
2023-03-22T06:38:15.133Z,89.75
2023-03-22T06:41:52.107Z,89.82
2023-03-22T06:45:33.513Z,89.81
2023-03-22T06:49:08.107Z,89.88
2023-03-22T06:52:44.931Z,89.86
2023-03-22T06:56:22.830Z,89.85
2023-03-22T07:00:00.374Z,89.90
2023-03-22T07:03:38.170Z,90.01
2023-03-22T07:07:16.036Z,89.97
2023-03-22T07:10:53.376Z,89.91
2023-03-22T07:14:31.695Z,89.94
2023-03-22T07:18:08.787Z,90.03
2023-03-22T07:21:46.420Z,89.46
2023-03-22T07:25:24.399Z,88.67
2023-03-22T07:29:02.151Z,88.43
2023-03-22T07:32:42.241Z,88.08
2023-03-22T07:36:17.237Z,87.74
2023-03-22T07:39:54.672Z,88.02
2023-03-22T07:43:37.134Z,87.76
2023-03-22T07:47:10.321Z,87.59
2023-03-22T07:50:48.270Z,87.56
2023-03-22T07:54:33.288Z,87.59
2023-03-22T07:58:04.011Z,87.44
2023-03-22T08:01:40.934Z,87.09
2023-03-22T08:05:18.978Z,87.09
2023-03-22T08:08:56.620Z,87.01
2023-03-22T08:12:35.577Z,86.94
2023-03-22T08:16:11.684Z,87.03
2023-03-22T08:19:50.257Z,86.87
2023-03-22T08:23:40.530Z,86.62
2023-03-22T08:27:08.133Z,86.67
2023-03-22T08:30:47.774Z,86.76
2023-03-22T08:34:23.413Z,86.89
2023-03-22T08:38:01.480Z,86.98
2023-03-22T08:41:39.635Z,86.86
2023-03-22T08:45:17.294Z,86.63
2023-03-22T08:48:54.942Z,86.39
2023-03-22T08:52:32.215Z,86.19
2023-03-22T08:56:09.751Z,86.17
2023-03-22T08:59:47.050Z,86.22
2023-03-22T09:03:26.613Z,86.35
2023-03-22T09:07:02.984Z,86.31
2023-03-22T09:10:40.567Z,86.30
2023-03-22T09:14:17.644Z,86.11
2023-03-22T09:17:56.604Z,86.05
2023-03-22T09:21:33.466Z,85.81
2023-03-22T09:25:13.018Z,85.45
2023-03-22T09:28:48.888Z,85.02
2023-03-22T09:32:27.017Z,84.88
2023-03-22T09:36:06.009Z,84.65
2023-03-22T09:39:42.040Z,84.42
2023-03-22T09:43:20.943Z,84.40
2023-03-22T09:47:00.131Z,84.21
2023-03-22T09:50:47.830Z,84.51
2023-03-22T09:54:31.472Z,84.54
2023-03-22T09:58:07.844Z,84.51
2023-03-22T10:01:35.500Z,84.70
2023-03-22T10:05:28.557Z,85.02
2023-03-22T10:09:11.170Z,84.97
2023-03-22T10:12:53.538Z,85.12
2023-03-22T10:16:02.405Z,85.69
2023-03-22T10:19:58.758Z,85.49
2023-03-22T10:23:18.873Z,84.80
2023-03-22T10:34:38.390Z,83.37
2023-03-22T10:38:22.876Z,82.74
2023-03-22T10:41:57.999Z,82.73
2023-03-22T10:45:35.278Z,82.59
2023-03-22T10:49:18.830Z,82.37
2023-03-22T10:53:04.776Z,81.63
2023-03-22T10:56:25.242Z,81.63
2023-03-22T11:00:10.048Z,81.21
2023-03-22T11:03:43.037Z,80.99
2023-03-22T11:07:47.584Z,80.15
2023-03-22T11:10:59.389Z,78.84
2023-03-22T11:14:36.976Z,77.71
2023-03-22T11:18:16.121Z,77.16
2023-03-22T11:21:48.364Z,77.59
2023-03-22T11:25:34.817Z,77.55
2023-03-22T11:29:16.701Z,76.47
2023-03-22T11:32:41.364Z,75.54
2023-03-22T11:36:26.544Z,75.71
2023-03-22T11:40:02.227Z,74.82
2023-03-22T11:43:42.456Z,74.78
2023-03-22T11:47:14.060Z,75.15
2023-03-22T11:50:53.900Z,75.21
2023-03-22T11:54:35.781Z,75.70
2023-03-22T11:58:06.718Z,76.07
2023-03-22T12:02:13.428Z,75.70
2023-03-22T12:05:30.607Z,75.74
2023-03-22T12:09:35.917Z,74.83
2023-03-22T12:12:44.645Z,75.32
2023-03-22T12:16:23.028Z,74.71
2023-03-22T12:20:06.300Z,75.08
2023-03-22T12:23:32.924Z,74.75
2023-03-22T12:27:17.699Z,74.70
2023-03-22T12:30:56.428Z,74.08
2023-03-22T12:34:33.894Z,73.30
2023-03-22T12:38:11.326Z,73.00
2023-03-22T12:41:43.670Z,73.50
2023-03-22T12:45:25.013Z,73.87
2023-03-22T12:49:15.659Z,73.69
2023-03-22T12:52:56.086Z,73.90
2023-03-22T12:56:40.045Z,73.62
2023-03-22T12:59:51.807Z,73.40
2023-03-22T13:03:51.559Z,73.56
2023-03-22T13:07:29.253Z,73.78
2023-03-22T13:11:03.388Z,74.22
2023-03-22T13:14:51.521Z,74.84
2023-03-22T13:17:56.823Z,75.23
2023-03-22T13:21:33.733Z,75.46
2023-03-22T13:25:12.640Z,75.84
2023-03-22T13:28:58.516Z,75.99
2023-03-22T13:32:32.894Z,76.10
2023-03-22T13:36:25.469Z,76.30
2023-03-22T13:39:41.247Z,76.26
2023-03-22T13:43:29.736Z,76.25
2023-03-22T13:47:01.836Z,76.30
2023-03-22T13:50:35.148Z,76.49
2023-03-22T13:54:16.470Z,76.60
2023-03-22T13:57:59.159Z,77.04
2023-03-22T14:01:35.213Z,77.01
2023-03-22T14:05:18.756Z,77.01
2023-03-22T14:08:47.331Z,76.94
2023-03-22T14:12:32.482Z,77.03
2023-03-22T14:16:08.669Z,76.93
2023-03-22T14:19:37.783Z,76.94
